sensor_id;sensor_type;location;lat;lon;timestamp;pressure;altitude;pressure_sealevel;temperature
78917;BMP280;68315;48.608;11.436;2023-08-17T00:00:03;97313.63;;;19.81
78917;BMP280;68315;48.608;11.436;2023-08-17T00:02:29;97328.91;;;19.80
78917;BMP280;68315;48.608;11.436;2023-08-17T00:04:54;97325.38;;;19.80
78917;BMP280;68315;48.608;11.436;2023-08-17T00:07:19;97329.34;;;19.77
78917;BMP280;68315;48.608;11.436;2023-08-17T00:09:45;97323.78;;;19.77
78917;BMP280;68315;48.608;11.436;2023-08-17T00:12:10;97330.69;;;19.76
78917;BMP280;68315;48.608;11.436;2023-08-17T00:14:35;97327.91;;;19.76
78917;BMP280;68315;48.608;11.436;2023-08-17T00:17:00;97321.13;;;19.79
78917;BMP280;68315;48.608;11.436;2023-08-17T00:19:28;97322.34;;;19.76
78917;BMP280;68315;48.608;11.436;2023-08-17T00:21:53;97313.78;;;19.74
78917;BMP280;68315;48.608;11.436;2023-08-17T00:24:20;97313.69;;;19.72
78917;BMP280;68315;48.608;11.436;2023-08-17T00:26:45;97310.00;;;19.69
78917;BMP280;68315;48.608;11.436;2023-08-17T00:29:10;97304.16;;;19.65
78917;BMP280;68315;48.608;11.436;2023-08-17T00:31:35;97300.25;;;19.59
78917;BMP280;68315;48.608;11.436;2023-08-17T00:34:01;97318.00;;;19.54
78917;BMP280;68315;48.608;11.436;2023-08-17T00:36:26;97317.00;;;19.49
78917;BMP280;68315;48.608;11.436;2023-08-17T00:38:51;97316.44;;;19.41
78917;BMP280;68315;48.608;11.436;2023-08-17T00:41:16;97325.41;;;19.40
78917;BMP280;68315;48.608;11.436;2023-08-17T00:43:42;97319.66;;;19.38
78917;BMP280;68315;48.608;11.436;2023-08-17T00:46:07;97318.34;;;19.39
78917;BMP280;68315;48.608;11.436;2023-08-17T00:48:33;97309.84;;;19.37
78917;BMP280;68315;48.608;11.436;2023-08-17T00:50:59;97310.56;;;19.37
78917;BMP280;68315;48.608;11.436;2023-08-17T00:53:27;97316.00;;;19.35
78917;BMP280;68315;48.608;11.436;2023-08-17T00:55:53;97313.66;;;19.32
78917;BMP280;68315;48.608;11.436;2023-08-17T00:58:20;97321.47;;;19.24
78917;BMP280;68315;48.608;11.436;2023-08-17T01:00:46;97314.75;;;19.17
78917;BMP280;68315;48.608;11.436;2023-08-17T01:03:11;97318.84;;;19.16
78917;BMP280;68315;48.608;11.436;2023-08-17T01:05:37;97310.34;;;19.14
78917;BMP280;68315;48.608;11.436;2023-08-17T01:08:03;97305.53;;;19.05
78917;BMP280;68315;48.608;11.436;2023-08-17T01:10:40;97315.66;;;19.01
78917;BMP280;68315;48.608;11.436;2023-08-17T01:13:12;97316.22;;;18.99
78917;BMP280;68315;48.608;11.436;2023-08-17T01:15:44;97327.38;;;18.99
78917;BMP280;68315;48.608;11.436;2023-08-17T01:18:17;97331.63;;;19.00
78917;BMP280;68315;48.608;11.436;2023-08-17T01:20:47;97328.09;;;19.00
78917;BMP280;68315;48.608;11.436;2023-08-17T01:23:13;97327.50;;;19.01
78917;BMP280;68315;48.608;11.436;2023-08-17T01:25:38;97333.22;;;19.03
78917;BMP280;68315;48.608;11.436;2023-08-17T01:28:05;97335.28;;;19.03
78917;BMP280;68315;48.608;11.436;2023-08-17T01:30:52;97342.31;;;19.04
78917;BMP280;68315;48.608;11.436;2023-08-17T01:33:33;97336.72;;;19.04
78917;BMP280;68315;48.608;11.436;2023-08-17T01:36:10;97335.28;;;19.03
78917;BMP280;68315;48.608;11.436;2023-08-17T01:38:38;97343.06;;;18.95
78917;BMP280;68315;48.608;11.436;2023-08-17T01:41:04;97335.72;;;18.90
78917;BMP280;68315;48.608;11.436;2023-08-17T01:43:31;97336.34;;;18.88
78917;BMP280;68315;48.608;11.436;2023-08-17T01:45:57;97338.22;;;18.86
78917;BMP280;68315;48.608;11.436;2023-08-17T01:48:22;97333.56;;;18.88
78917;BMP280;68315;48.608;11.436;2023-08-17T01:50:47;97330.88;;;18.90
78917;BMP280;68315;48.608;11.436;2023-08-17T01:53:13;97345.00;;;18.92
78917;BMP280;68315;48.608;11.436;2023-08-17T01:55:39;97342.91;;;18.93
78917;BMP280;68315;48.608;11.436;2023-08-17T01:58:04;97351.84;;;18.91
78917;BMP280;68315;48.608;11.436;2023-08-17T02:00:29;97352.44;;;18.90
78917;BMP280;68315;48.608;11.436;2023-08-17T02:02:54;97350.25;;;18.88
78917;BMP280;68315;48.608;11.436;2023-08-17T02:05:20;97343.94;;;18.88
78917;BMP280;68315;48.608;11.436;2023-08-17T02:07:45;97353.47;;;18.85
78917;BMP280;68315;48.608;11.436;2023-08-17T02:10:10;97349.97;;;18.84
78917;BMP280;68315;48.608;11.436;2023-08-17T02:12:35;97358.59;;;18.79
78917;BMP280;68315;48.608;11.436;2023-08-17T02:15:01;97353.50;;;18.75
78917;BMP280;68315;48.608;11.436;2023-08-17T02:17:26;97353.91;;;18.72
78917;BMP280;68315;48.608;11.436;2023-08-17T02:19:52;97354.06;;;18.74
78917;BMP280;68315;48.608;11.436;2023-08-17T02:22:17;97349.22;;;18.74
78917;BMP280;68315;48.608;11.436;2023-08-17T02:24:42;97345.84;;;18.76
78917;BMP280;68315;48.608;11.436;2023-08-17T02:27:09;97336.78;;;18.75
78917;BMP280;68315;48.608;11.436;2023-08-17T02:29:34;97336.59;;;18.73
78917;BMP280;68315;48.608;11.436;2023-08-17T02:31:59;97324.03;;;18.72
78917;BMP280;68315;48.608;11.436;2023-08-17T02:34:24;97328.25;;;18.73
78917;BMP280;68315;48.608;11.436;2023-08-17T02:36:50;97312.03;;;18.70
78917;BMP280;68315;48.608;11.436;2023-08-17T02:39:15;97310.97;;;18.65
78917;BMP280;68315;48.608;11.436;2023-08-17T02:41:40;97325.50;;;18.63
78917;BMP280;68315;48.608;11.436;2023-08-17T02:44:06;97321.84;;;18.61
78917;BMP280;68315;48.608;11.436;2023-08-17T02:46:31;97330.19;;;18.61
78917;BMP280;68315;48.608;11.436;2023-08-17T02:48:56;97324.44;;;18.59
78917;BMP280;68315;48.608;11.436;2023-08-17T02:51:21;97327.09;;;18.57
78917;BMP280;68315;48.608;11.436;2023-08-17T02:53:47;97322.84;;;18.56
78917;BMP280;68315;48.608;11.436;2023-08-17T02:56:12;97324.16;;;18.55
78917;BMP280;68315;48.608;11.436;2023-08-17T02:58:38;97324.00;;;18.53
78917;BMP280;68315;48.608;11.436;2023-08-17T03:01:07;97325.78;;;18.48
78917;BMP280;68315;48.608;11.436;2023-08-17T03:03:32;97328.25;;;18.44
78917;BMP280;68315;48.608;11.436;2023-08-17T03:05:57;97323.13;;;18.41
78917;BMP280;68315;48.608;11.436;2023-08-17T03:08:23;97311.13;;;18.38
78917;BMP280;68315;48.608;11.436;2023-08-17T03:10:48;97320.03;;;18.37
78917;BMP280;68315;48.608;11.436;2023-08-17T03:13:13;97327.81;;;18.38
78917;BMP280;68315;48.608;11.436;2023-08-17T03:15:38;97318.13;;;18.39
78917;BMP280;68315;48.608;11.436;2023-08-17T03:18:05;97312.88;;;18.34
78917;BMP280;68315;48.608;11.436;2023-08-17T03:20:30;97307.56;;;18.28
78917;BMP280;68315;48.608;11.436;2023-08-17T03:22:56;97305.97;;;18.25
78917;BMP280;68315;48.608;11.436;2023-08-17T03:25:21;97303.78;;;18.24
78917;BMP280;68315;48.608;11.436;2023-08-17T03:27:46;97304.22;;;18.20
78917;BMP280;68315;48.608;11.436;2023-08-17T03:30:11;97307.56;;;18.19
78917;BMP280;68315;48.608;11.436;2023-08-17T03:32:37;97308.00;;;18.15
78917;BMP280;68315;48.608;11.436;2023-08-17T03:35:02;97321.59;;;18.11
78917;BMP280;68315;48.608;11.436;2023-08-17T03:37:28;97309.75;;;18.11
78917;BMP280;68315;48.608;11.436;2023-08-17T03:39:53;97305.34;;;18.08
78917;BMP280;68315;48.608;11.436;2023-08-17T03:42:19;97298.31;;;18.07
78917;BMP280;68315;48.608;11.436;2023-08-17T03:44:44;97304.59;;;18.07
78917;BMP280;68315;48.608;11.436;2023-08-17T03:47:09;97305.19;;;18.06
78917;BMP280;68315;48.608;11.436;2023-08-17T03:49:34;97300.22;;;18.04
78917;BMP280;68315;48.608;11.436;2023-08-17T03:52:00;97308.41;;;18.02
78917;BMP280;68315;48.608;11.436;2023-08-17T03:54:25;97311.78;;;18.01
78917;BMP280;68315;48.608;11.436;2023-08-17T03:56:50;97321.41;;;18.00
78917;BMP280;68315;48.608;11.436;2023-08-17T03:59:15;97300.50;;;17.99
78917;BMP280;68315;48.608;11.436;2023-08-17T04:01:41;97302.97;;;17.95
78917;BMP280;68315;48.608;11.436;2023-08-17T04:04:06;97302.09;;;17.92
78917;BMP280;68315;48.608;11.436;2023-08-17T04:06:31;97303.97;;;17.90
78917;BMP280;68315;48.608;11.436;2023-08-17T04:08:57;97299.84;;;17.81
78917;BMP280;68315;48.608;11.436;2023-08-17T04:11:22;97305.69;;;17.76
78917;BMP280;68315;48.608;11.436;2023-08-17T04:13:47;97312.53;;;17.75
78917;BMP280;68315;48.608;11.436;2023-08-17T04:16:12;97304.19;;;17.75
78917;BMP280;68315;48.608;11.436;2023-08-17T04:18:37;97319.59;;;17.76
78917;BMP280;68315;48.608;11.436;2023-08-17T04:21:03;97317.38;;;17.74
78917;BMP280;68315;48.608;11.436;2023-08-17T04:23:28;97320.00;;;17.72
78917;BMP280;68315;48.608;11.436;2023-08-17T04:25:53;97322.03;;;17.72
78917;BMP280;68315;48.608;11.436;2023-08-17T04:28:19;97317.81;;;17.71
78917;BMP280;68315;48.608;11.436;2023-08-17T04:30:44;97319.25;;;17.72
78917;BMP280;68315;48.608;11.436;2023-08-17T04:33:10;97316.69;;;17.74
78917;BMP280;68315;48.608;11.436;2023-08-17T04:35:35;97322.53;;;17.78
78917;BMP280;68315;48.608;11.436;2023-08-17T04:38:00;97329.13;;;17.82
78917;BMP280;68315;48.608;11.436;2023-08-17T04:40:26;97330.75;;;17.85
78917;BMP280;68315;48.608;11.436;2023-08-17T04:42:51;97337.22;;;17.88
78917;BMP280;68315;48.608;11.436;2023-08-17T04:45:16;97335.13;;;17.88
78917;BMP280;68315;48.608;11.436;2023-08-17T04:47:41;97339.53;;;17.91
78917;BMP280;68315;48.608;11.436;2023-08-17T04:50:07;97336.34;;;17.95
78917;BMP280;68315;48.608;11.436;2023-08-17T04:52:32;97341.06;;;18.02
78917;BMP280;68315;48.608;11.436;2023-08-17T04:54:58;97348.53;;;18.09
78917;BMP280;68315;48.608;11.436;2023-08-17T04:57:23;97341.50;;;18.17
78917;BMP280;68315;48.608;11.436;2023-08-17T04:59:49;97343.28;;;18.22
78917;BMP280;68315;48.608;11.436;2023-08-17T05:02:14;97334.22;;;18.31
78917;BMP280;68315;48.608;11.436;2023-08-17T05:04:39;97335.44;;;18.38
78917;BMP280;68315;48.608;11.436;2023-08-17T05:07:05;97334.72;;;18.47
78917;BMP280;68315;48.608;11.436;2023-08-17T05:09:30;97341.59;;;18.55
78917;BMP280;68315;48.608;11.436;2023-08-17T05:11:55;97347.00;;;18.63
78917;BMP280;68315;48.608;11.436;2023-08-17T05:14:21;97338.53;;;18.71
78917;BMP280;68315;48.608;11.436;2023-08-17T05:16:46;97337.06;;;18.79
78917;BMP280;68315;48.608;11.436;2023-08-17T05:19:11;97339.84;;;18.89
78917;BMP280;68315;48.608;11.436;2023-08-17T05:21:36;97330.78;;;18.98
78917;BMP280;68315;48.608;11.436;2023-08-17T05:24:02;97339.81;;;19.08
78917;BMP280;68315;48.608;11.436;2023-08-17T05:26:27;97337.19;;;19.19
78917;BMP280;68315;48.608;11.436;2023-08-17T05:28:52;97335.09;;;19.29
78917;BMP280;68315;48.608;11.436;2023-08-17T05:31:18;97332.16;;;19.37
78917;BMP280;68315;48.608;11.436;2023-08-17T05:33:43;97330.94;;;19.49
78917;BMP280;68315;48.608;11.436;2023-08-17T05:36:08;97338.09;;;19.62
78917;BMP280;68315;48.608;11.436;2023-08-17T05:38:33;97338.78;;;19.72
78917;BMP280;68315;48.608;11.436;2023-08-17T05:40:59;97328.31;;;19.82
78917;BMP280;68315;48.608;11.436;2023-08-17T05:43:25;97329.00;;;19.92
78917;BMP280;68315;48.608;11.436;2023-08-17T05:45:51;97338.63;;;20.01
78917;BMP280;68315;48.608;11.436;2023-08-17T05:48:19;97340.75;;;20.12
78917;BMP280;68315;48.608;11.436;2023-08-17T05:50:44;97343.50;;;20.21
78917;BMP280;68315;48.608;11.436;2023-08-17T05:53:09;97349.78;;;20.31
78917;BMP280;68315;48.608;11.436;2023-08-17T05:55:35;97347.03;;;20.43
78917;BMP280;68315;48.608;11.436;2023-08-17T05:58:00;97349.28;;;20.56
78917;BMP280;68315;48.608;11.436;2023-08-17T06:00:25;97349.34;;;20.67
78917;BMP280;68315;48.608;11.436;2023-08-17T06:02:51;97349.41;;;20.79
78917;BMP280;68315;48.608;11.436;2023-08-17T06:05:17;97350.91;;;20.91
78917;BMP280;68315;48.608;11.436;2023-08-17T06:07:42;97353.72;;;21.03
78917;BMP280;68315;48.608;11.436;2023-08-17T06:10:09;97362.03;;;21.13
78917;BMP280;68315;48.608;11.436;2023-08-17T06:12:34;97357.78;;;21.23
78917;BMP280;68315;48.608;11.436;2023-08-17T06:15:04;97361.25;;;21.33
78917;BMP280;68315;48.608;11.436;2023-08-17T06:17:29;97353.59;;;21.45
78917;BMP280;68315;48.608;11.436;2023-08-17T06:19:54;97370.38;;;21.57
78917;BMP280;68315;48.608;11.436;2023-08-17T06:22:19;97363.34;;;21.67
78917;BMP280;68315;48.608;11.436;2023-08-17T06:24:45;97362.38;;;21.74
78917;BMP280;68315;48.608;11.436;2023-08-17T06:27:13;97368.81;;;21.88
78917;BMP280;68315;48.608;11.436;2023-08-17T06:29:39;97366.03;;;22.00
78917;BMP280;68315;48.608;11.436;2023-08-17T06:32:05;97366.13;;;22.13
78917;BMP280;68315;48.608;11.436;2023-08-17T06:34:30;97366.84;;;22.25
78917;BMP280;68315;48.608;11.436;2023-08-17T06:37:00;97361.81;;;22.35
78917;BMP280;68315;48.608;11.436;2023-08-17T06:39:26;97354.22;;;22.49
78917;BMP280;68315;48.608;11.436;2023-08-17T06:41:52;97354.28;;;22.63
78917;BMP280;68315;48.608;11.436;2023-08-17T06:44:17;97350.22;;;22.78
78917;BMP280;68315;48.608;11.436;2023-08-17T06:46:43;97351.22;;;22.96
78917;BMP280;68315;48.608;11.436;2023-08-17T06:49:08;97348.56;;;23.11
78917;BMP280;68315;48.608;11.436;2023-08-17T06:51:33;97350.16;;;23.28
78917;BMP280;68315;48.608;11.436;2023-08-17T06:53:59;97351.41;;;23.25
78917;BMP280;68315;48.608;11.436;2023-08-17T06:56:24;97358.50;;;23.26
78917;BMP280;68315;48.608;11.436;2023-08-17T06:58:49;97351.97;;;23.35
78917;BMP280;68315;48.608;11.436;2023-08-17T07:01:15;97352.16;;;23.39
78917;BMP280;68315;48.608;11.436;2023-08-17T07:03:40;97351.38;;;23.50
78917;BMP280;68315;48.608;11.436;2023-08-17T07:06:05;97358.25;;;23.60
78917;BMP280;68315;48.608;11.436;2023-08-17T07:08:30;97355.53;;;23.76
78917;BMP280;68315;48.608;11.436;2023-08-17T07:10:56;97357.94;;;23.95
78917;BMP280;68315;48.608;11.436;2023-08-17T07:13:21;97360.53;;;24.04
78917;BMP280;68315;48.608;11.436;2023-08-17T07:15:46;97358.44;;;24.19
78917;BMP280;68315;48.608;11.436;2023-08-17T07:18:11;97359.38;;;24.37
78917;BMP280;68315;48.608;11.436;2023-08-17T07:20:37;97360.25;;;24.55
78917;BMP280;68315;48.608;11.436;2023-08-17T07:23:15;97354.03;;;24.72
78917;BMP280;68315;48.608;11.436;2023-08-17T07:25:40;97361.16;;;24.88
78917;BMP280;68315;48.608;11.436;2023-08-17T07:28:05;97363.19;;;25.01
78917;BMP280;68315;48.608;11.436;2023-08-17T07:30:31;97375.19;;;25.17
78917;BMP280;68315;48.608;11.436;2023-08-17T07:32:56;97363.84;;;25.31
78917;BMP280;68315;48.608;11.436;2023-08-17T07:35:21;97368.47;;;25.40
78917;BMP280;68315;48.608;11.436;2023-08-17T07:37:46;97368.31;;;25.51
78917;BMP280;68315;48.608;11.436;2023-08-17T07:40:12;97369.38;;;25.60
78917;BMP280;68315;48.608;11.436;2023-08-17T07:42:37;97373.34;;;25.70
78917;BMP280;68315;48.608;11.436;2023-08-17T07:45:03;97371.72;;;25.81
78917;BMP280;68315;48.608;11.436;2023-08-17T07:47:31;97367.97;;;25.92
78917;BMP280;68315;48.608;11.436;2023-08-17T07:49:56;97371.38;;;26.06
78917;BMP280;68315;48.608;11.436;2023-08-17T07:52:23;97363.53;;;26.20
78917;BMP280;68315;48.608;11.436;2023-08-17T07:54:48;97371.00;;;26.31
78917;BMP280;68315;48.608;11.436;2023-08-17T07:57:13;97376.28;;;26.39
78917;BMP280;68315;48.608;11.436;2023-08-17T07:59:38;97375.22;;;26.48
78917;BMP280;68315;48.608;11.436;2023-08-17T08:02:04;97367.13;;;26.56
78917;BMP280;68315;48.608;11.436;2023-08-17T08:04:29;97375.25;;;26.65
78917;BMP280;68315;48.608;11.436;2023-08-17T08:06:54;97372.91;;;26.77
78917;BMP280;68315;48.608;11.436;2023-08-17T08:09:19;97369.75;;;26.87
78917;BMP280;68315;48.608;11.436;2023-08-17T08:11:46;97371.59;;;26.98
78917;BMP280;68315;48.608;11.436;2023-08-17T08:14:11;97376.25;;;27.09
78917;BMP280;68315;48.608;11.436;2023-08-17T08:16:37;97373.81;;;27.19
78917;BMP280;68315;48.608;11.436;2023-08-17T08:19:04;97363.38;;;27.23
78917;BMP280;68315;48.608;11.436;2023-08-17T08:21:30;97364.28;;;27.28
78917;BMP280;68315;48.608;11.436;2023-08-17T08:23:56;97364.72;;;27.40
78917;BMP280;68315;48.608;11.436;2023-08-17T08:26:21;97363.63;;;27.49
78917;BMP280;68315;48.608;11.436;2023-08-17T08:28:47;97364.00;;;27.59
78917;BMP280;68315;48.608;11.436;2023-08-17T08:31:15;97363.75;;;27.72
78917;BMP280;68315;48.608;11.436;2023-08-17T08:33:40;97359.41;;;27.89
78917;BMP280;68315;48.608;11.436;2023-08-17T08:36:05;97355.63;;;28.02
78917;BMP280;68315;48.608;11.436;2023-08-17T08:38:31;97351.03;;;28.13
78917;BMP280;68315;48.608;11.436;2023-08-17T08:40:57;97349.31;;;28.25
78917;BMP280;68315;48.608;11.436;2023-08-17T08:43:23;97339.91;;;28.40
78917;BMP280;68315;48.608;11.436;2023-08-17T08:45:50;97334.50;;;28.48
78917;BMP280;68315;48.608;11.436;2023-08-17T08:48:18;97341.22;;;28.59
78917;BMP280;68315;48.608;11.436;2023-08-17T08:50:45;97331.66;;;28.70
78917;BMP280;68315;48.608;11.436;2023-08-17T08:53:14;97341.25;;;28.82
78917;BMP280;68315;48.608;11.436;2023-08-17T08:55:45;97338.81;;;28.96
78917;BMP280;68315;48.608;11.436;2023-08-17T08:58:12;97336.31;;;29.08
78917;BMP280;68315;48.608;11.436;2023-08-17T09:00:39;97337.94;;;29.15
78917;BMP280;68315;48.608;11.436;2023-08-17T09:03:05;97342.47;;;29.24
78917;BMP280;68315;48.608;11.436;2023-08-17T09:05:55;97337.81;;;29.35
78917;BMP280;68315;48.608;11.436;2023-08-17T09:08:43;97329.69;;;29.49
78917;BMP280;68315;48.608;11.436;2023-08-17T09:11:09;97331.50;;;29.64
78917;BMP280;68315;48.608;11.436;2023-08-17T09:13:34;97331.03;;;29.73
78917;BMP280;68315;48.608;11.436;2023-08-17T09:16:00;97322.75;;;29.81
78917;BMP280;68315;48.608;11.436;2023-08-17T09:18:27;97321.56;;;29.90
78917;BMP280;68315;48.608;11.436;2023-08-17T09:20:52;97327.28;;;29.92
78917;BMP280;68315;48.608;11.436;2023-08-17T09:23:18;97331.13;;;30.03
78917;BMP280;68315;48.608;11.436;2023-08-17T09:25:49;97320.25;;;30.23
78917;BMP280;68315;48.608;11.436;2023-08-17T09:28:18;97323.41;;;30.37
78917;BMP280;68315;48.608;11.436;2023-08-17T09:33:24;97319.03;;;30.62
78917;BMP280;68315;48.608;11.436;2023-08-17T09:35:51;97322.19;;;30.78
78917;BMP280;68315;48.608;11.436;2023-08-17T09:38:17;97327.66;;;30.68
78917;BMP280;68315;48.608;11.436;2023-08-17T09:40:43;97334.13;;;30.72
78917;BMP280;68315;48.608;11.436;2023-08-17T09:43:09;97318.09;;;30.85
78917;BMP280;68315;48.608;11.436;2023-08-17T09:45:37;97325.56;;;31.04
78917;BMP280;68315;48.608;11.436;2023-08-17T09:48:02;97330.19;;;31.21
78917;BMP280;68315;48.608;11.436;2023-08-17T09:50:28;97330.50;;;31.39
78917;BMP280;68315;48.608;11.436;2023-08-17T09:52:53;97325.22;;;31.59
78917;BMP280;68315;48.608;11.436;2023-08-17T09:55:21;97323.44;;;31.77
78917;BMP280;68315;48.608;11.436;2023-08-17T09:57:51;97325.81;;;31.93
78917;BMP280;68315;48.608;11.436;2023-08-17T10:00:20;97315.94;;;32.00
78917;BMP280;68315;48.608;11.436;2023-08-17T10:02:49;97318.34;;;32.15
78917;BMP280;68315;48.608;11.436;2023-08-17T10:05:17;97317.91;;;32.33
78917;BMP280;68315;48.608;11.436;2023-08-17T10:07:46;97327.94;;;32.40
78917;BMP280;68315;48.608;11.436;2023-08-17T10:10:16;97322.91;;;32.36
78917;BMP280;68315;48.608;11.436;2023-08-17T10:13:08;97319.28;;;32.30
78917;BMP280;68315;48.608;11.436;2023-08-17T10:15:37;97319.91;;;32.24
78917;BMP280;68315;48.608;11.436;2023-08-17T10:18:24;97312.75;;;32.23
78917;BMP280;68315;48.608;11.436;2023-08-17T10:21:00;97316.44;;;32.30
78917;BMP280;68315;48.608;11.436;2023-08-17T10:23:27;97312.91;;;32.33
78917;BMP280;68315;48.608;11.436;2023-08-17T10:25:53;97310.91;;;32.42
78917;BMP280;68315;48.608;11.436;2023-08-17T10:28:20;97308.38;;;32.64
78917;BMP280;68315;48.608;11.436;2023-08-17T10:30:46;97315.84;;;32.93
78917;BMP280;68315;48.608;11.436;2023-08-17T10:33:13;97310.44;;;33.21
78917;BMP280;68315;48.608;11.436;2023-08-17T10:35:39;97308.56;;;33.45
78917;BMP280;68315;48.608;11.436;2023-08-17T10:38:05;97300.88;;;33.56
78917;BMP280;68315;48.608;11.436;2023-08-17T10:40:35;97306.50;;;33.50
78917;BMP280;68315;48.608;11.436;2023-08-17T10:43:01;97306.59;;;33.64
78917;BMP280;68315;48.608;11.436;2023-08-17T10:45:34;97304.69;;;33.90
78917;BMP280;68315;48.608;11.436;2023-08-17T10:48:26;97306.25;;;34.11
78917;BMP280;68315;48.608;11.436;2023-08-17T10:51:00;97308.50;;;34.25
78917;BMP280;68315;48.608;11.436;2023-08-17T10:53:26;97306.38;;;34.27
78917;BMP280;68315;48.608;11.436;2023-08-17T10:55:57;97298.56;;;34.32
78917;BMP280;68315;48.608;11.436;2023-08-17T10:58:22;97301.50;;;34.50
78917;BMP280;68315;48.608;11.436;2023-08-17T11:00:54;97294.47;;;34.71
78917;BMP280;68315;48.608;11.436;2023-08-17T11:03:20;97298.09;;;34.91
78917;BMP280;68315;48.608;11.436;2023-08-17T11:05:52;97299.56;;;35.08
78917;BMP280;68315;48.608;11.436;2023-08-17T11:08:23;97299.53;;;35.00
78917;BMP280;68315;48.608;11.436;2023-08-17T11:11:12;97292.38;;;34.91
78917;BMP280;68315;48.608;11.436;2023-08-17T11:13:39;97297.31;;;34.75
78917;BMP280;68315;48.608;11.436;2023-08-17T11:16:06;97287.84;;;34.32
78917;BMP280;68315;48.608;11.436;2023-08-17T11:18:32;97286.31;;;34.15
78917;BMP280;68315;48.608;11.436;2023-08-17T11:20:58;97289.91;;;34.22
78917;BMP280;68315;48.608;11.436;2023-08-17T11:23:23;97284.97;;;34.28
78917;BMP280;68315;48.608;11.436;2023-08-17T11:25:49;97286.47;;;34.41
78917;BMP280;68315;48.608;11.436;2023-08-17T11:28:16;97286.53;;;34.57
78917;BMP280;68315;48.608;11.436;2023-08-17T11:30:41;97285.88;;;34.69
78917;BMP280;68315;48.608;11.436;2023-08-17T11:33:07;97285.88;;;34.75
78917;BMP280;68315;48.608;11.436;2023-08-17T11:35:33;97277.31;;;34.75
78917;BMP280;68315;48.608;11.436;2023-08-17T11:37:59;97280.16;;;34.65
78917;BMP280;68315;48.608;11.436;2023-08-17T11:40:25;97279.97;;;34.25
78917;BMP280;68315;48.608;11.436;2023-08-17T11:42:51;97277.59;;;33.89
78917;BMP280;68315;48.608;11.436;2023-08-17T11:45:17;97275.31;;;33.70
78917;BMP280;68315;48.608;11.436;2023-08-17T11:47:42;97264.63;;;33.70
78917;BMP280;68315;48.608;11.436;2023-08-17T11:50:14;97269.72;;;33.86
78917;BMP280;68315;48.608;11.436;2023-08-17T11:52:40;97265.63;;;34.11
78917;BMP280;68315;48.608;11.436;2023-08-17T11:55:06;97265.72;;;34.29
78917;BMP280;68315;48.608;11.436;2023-08-17T11:57:33;97258.53;;;34.24
78917;BMP280;68315;48.608;11.436;2023-08-17T11:59:59;97264.91;;;34.16
78917;BMP280;68315;48.608;11.436;2023-08-17T12:02:26;97251.22;;;33.91
78917;BMP280;68315;48.608;11.436;2023-08-17T12:04:52;97263.97;;;33.78
78917;BMP280;68315;48.608;11.436;2023-08-17T12:07:18;97259.66;;;33.79
78917;BMP280;68315;48.608;11.436;2023-08-17T12:09:45;97260.44;;;33.85
78917;BMP280;68315;48.608;11.436;2023-08-17T12:12:11;97257.75;;;34.09
78917;BMP280;68315;48.608;11.436;2023-08-17T12:14:36;97260.03;;;34.39
78917;BMP280;68315;48.608;11.436;2023-08-17T12:17:02;97247.31;;;34.64
78917;BMP280;68315;48.608;11.436;2023-08-17T12:19:28;97251.66;;;34.95
78917;BMP280;68315;48.608;11.436;2023-08-17T12:21:54;97245.31;;;35.33
78917;BMP280;68315;48.608;11.436;2023-08-17T12:24:19;97234.56;;;35.53
78917;BMP280;68315;48.608;11.436;2023-08-17T12:26:45;97228.84;;;35.63
78917;BMP280;68315;48.608;11.436;2023-08-17T12:29:11;97225.97;;;35.71
78917;BMP280;68315;48.608;11.436;2023-08-17T12:31:37;97223.09;;;35.77
78917;BMP280;68315;48.608;11.436;2023-08-17T12:34:02;97216.63;;;35.80
78917;BMP280;68315;48.608;11.436;2023-08-17T12:36:28;97218.03;;;36.06
78917;BMP280;68315;48.608;11.436;2023-08-17T12:38:54;97214.34;;;36.23
78917;BMP280;68315;48.608;11.436;2023-08-17T12:41:19;97211.53;;;36.09
78917;BMP280;68315;48.608;11.436;2023-08-17T12:43:45;97208.78;;;35.83
78917;BMP280;68315;48.608;11.436;2023-08-17T12:46:10;97203.81;;;35.78
78917;BMP280;68315;48.608;11.436;2023-08-17T12:48:38;97203.03;;;35.81
78917;BMP280;68315;48.608;11.436;2023-08-17T12:51:03;97205.81;;;36.09
78917;BMP280;68315;48.608;11.436;2023-08-17T12:53:29;97202.09;;;36.43
78917;BMP280;68315;48.608;11.436;2023-08-17T12:55:54;97198.34;;;36.70
78917;BMP280;68315;48.608;11.436;2023-08-17T12:58:20;97194.72;;;36.84
78917;BMP280;68315;48.608;11.436;2023-08-17T13:00:45;97189.69;;;36.86
78917;BMP280;68315;48.608;11.436;2023-08-17T13:03:11;97188.97;;;36.84
78917;BMP280;68315;48.608;11.436;2023-08-17T13:05:36;97188.94;;;36.86
78917;BMP280;68315;48.608;11.436;2023-08-17T13:08:01;97188.16;;;36.97
78917;BMP280;68315;48.608;11.436;2023-08-17T13:10:27;97182.31;;;37.11
78917;BMP280;68315;48.608;11.436;2023-08-17T13:12:52;97190.03;;;37.29
78917;BMP280;68315;48.608;11.436;2023-08-17T13:15:21;97179.13;;;37.43
78917;BMP280;68315;48.608;11.436;2023-08-17T13:17:46;97181.97;;;37.47
78917;BMP280;68315;48.608;11.436;2023-08-17T13:20:12;97178.31;;;37.53
78917;BMP280;68315;48.608;11.436;2023-08-17T13:22:37;97179.66;;;37.60
78917;BMP280;68315;48.608;11.436;2023-08-17T13:25:15;97174.53;;;37.68
78917;BMP280;68315;48.608;11.436;2023-08-17T13:27:40;97176.53;;;37.86
78917;BMP280;68315;48.608;11.436;2023-08-17T13:30:06;97177.00;;;38.04
78917;BMP280;68315;48.608;11.436;2023-08-17T13:32:31;97176.03;;;38.24
78917;BMP280;68315;48.608;11.436;2023-08-17T13:34:57;97173.63;;;38.42
78917;BMP280;68315;48.608;11.436;2023-08-17T13:37:22;97171.97;;;38.57
78917;BMP280;68315;48.608;11.436;2023-08-17T13:39:47;97174.56;;;38.75
78917;BMP280;68315;48.608;11.436;2023-08-17T13:42:12;97162.84;;;38.87
78917;BMP280;68315;48.608;11.436;2023-08-17T13:44:38;97166.94;;;39.00
78917;BMP280;68315;48.608;11.436;2023-08-17T13:47:04;97170.63;;;38.97
78917;BMP280;68315;48.608;11.436;2023-08-17T13:49:29;97164.69;;;39.06
78917;BMP280;68315;48.608;11.436;2023-08-17T13:51:54;97165.06;;;39.25
78917;BMP280;68315;48.608;11.436;2023-08-17T13:54:21;97176.97;;;39.41